sensor_id;sensor_type;location;lat;lon;timestamp;P1;durP1;ratioP1;P2;durP2;ratioP2
20695;SDS011;10507;52.754;13.040;2022-09-09T00:00:23;19.70;;;13.65;;
20695;SDS011;10507;52.754;13.040;2022-09-09T00:02:57;19.35;;;12.65;;
20695;SDS011;10507;52.754;13.040;2022-09-09T00:05:31;16.83;;;12.43;;
20695;SDS011;10507;52.754;13.040;2022-09-09T00:08:06;19.45;;;12.98;;
20695;SDS011;10507;52.754;13.040;2022-09-09T00:10:42;19.20;;;13.25;;
20695;SDS011;10507;52.754;13.040;2022-09-09T00:13:13;19.80;;;12.73;;
20695;SDS011;10507;52.754;13.040;2022-09-09T00:15:48;15.32;;;10.38;;
20695;SDS011;10507;52.754;13.040;2022-09-09T00:18:25;19.52;;;13.65;;
20695;SDS011;10507;52.754;13.040;2022-09-09T00:21:00;20.40;;;12.63;;
20695;SDS011;10507;52.754;13.040;2022-09-09T00:23:34;19.95;;;12.25;;
20695;SDS011;10507;52.754;13.040;2022-09-09T00:26:08;17.50;;;11.85;;
20695;SDS011;10507;52.754;13.040;2022-09-09T00:28:42;21.05;;;13.07;;
20695;SDS011;10507;52.754;13.040;2022-09-09T00:31:18;19.17;;;12.95;;
20695;SDS011;10507;52.754;13.040;2022-09-09T00:33:52;22.98;;;13.23;;
20695;SDS011;10507;52.754;13.040;2022-09-09T00:36:23;18.17;;;11.48;;
20695;SDS011;10507;52.754;13.040;2022-09-09T00:38:56;16.38;;;11.43;;
20695;SDS011;10507;52.754;13.040;2022-09-09T00:41:29;21.83;;;13.48;;
20695;SDS011;10507;52.754;13.040;2022-09-09T00:44:13;21.13;;;14.10;;
20695;SDS011;10507;52.754;13.040;2022-09-09T00:46:56;21.05;;;13.60;;
20695;SDS011;10507;52.754;13.040;2022-09-09T00:49:50;23.35;;;15.18;;
20695;SDS011;10507;52.754;13.040;2022-09-09T00:52:32;23.15;;;13.90;;
20695;SDS011;10507;52.754;13.040;2022-09-09T00:55:08;23.90;;;13.95;;
20695;SDS011;10507;52.754;13.040;2022-09-09T00:57:42;25.02;;;15.15;;
20695;SDS011;10507;52.754;13.040;2022-09-09T01:00:19;24.55;;;15.18;;
20695;SDS011;10507;52.754;13.040;2022-09-09T01:02:53;24.88;;;15.07;;
20695;SDS011;10507;52.754;13.040;2022-09-09T01:05:51;25.50;;;15.32;;
20695;SDS011;10507;52.754;13.040;2022-09-09T01:08:39;22.40;;;14.60;;
20695;SDS011;10507;52.754;13.040;2022-09-09T01:11:20;21.35;;;14.52;;
20695;SDS011;10507;52.754;13.040;2022-09-09T01:13:49;21.50;;;14.00;;
20695;SDS011;10507;52.754;13.040;2022-09-09T01:16:25;21.85;;;13.70;;
20695;SDS011;10507;52.754;13.040;2022-09-09T01:18:56;21.02;;;13.68;;
20695;SDS011;10507;52.754;13.040;2022-09-09T01:21:30;21.60;;;13.25;;
20695;SDS011;10507;52.754;13.040;2022-09-09T01:24:09;20.85;;;11.23;;
20695;SDS011;10507;52.754;13.040;2022-09-09T01:26:49;17.95;;;10.63;;
20695;SDS011;10507;52.754;13.040;2022-09-09T01:29:20;17.13;;;11.27;;
20695;SDS011;10507;52.754;13.040;2022-09-09T01:31:53;28.83;;;10.80;;
20695;SDS011;10507;52.754;13.040;2022-09-09T01:34:23;24.63;;;9.98;;
20695;SDS011;10507;52.754;13.040;2022-09-09T01:36:55;20.20;;;9.85;;
20695;SDS011;10507;52.754;13.040;2022-09-09T01:39:26;17.38;;;8.85;;
20695;SDS011;10507;52.754;13.040;2022-09-09T01:41:56;19.33;;;9.02;;
20695;SDS011;10507;52.754;13.040;2022-09-09T01:44:24;17.10;;;9.35;;
20695;SDS011;10507;52.754;13.040;2022-09-09T01:46:52;25.35;;;9.75;;
20695;SDS011;10507;52.754;13.040;2022-09-09T01:49:20;32.55;;;10.20;;
20695;SDS011;10507;52.754;13.040;2022-09-09T01:51:49;25.98;;;9.85;;
20695;SDS011;10507;52.754;13.040;2022-09-09T01:54:19;27.23;;;10.38;;
20695;SDS011;10507;52.754;13.040;2022-09-09T01:56:52;28.67;;;9.88;;
20695;SDS011;10507;52.754;13.040;2022-09-09T01:59:34;21.83;;;9.82;;
20695;SDS011;10507;52.754;13.040;2022-09-09T02:02:14;27.13;;;9.88;;
20695;SDS011;10507;52.754;13.040;2022-09-09T02:04:47;20.08;;;8.90;;
20695;SDS011;10507;52.754;13.040;2022-09-09T02:07:27;20.35;;;8.48;;
20695;SDS011;10507;52.754;13.040;2022-09-09T02:10:05;16.27;;;8.18;;
20695;SDS011;10507;52.754;13.040;2022-09-09T02:12:41;11.73;;;8.50;;
20695;SDS011;10507;52.754;13.040;2022-09-09T02:15:15;13.27;;;8.63;;
20695;SDS011;10507;52.754;13.040;2022-09-09T02:17:45;31.92;;;9.95;;
20695;SDS011;10507;52.754;13.040;2022-09-09T02:20:14;13.82;;;8.70;;
20695;SDS011;10507;52.754;13.040;2022-09-09T02:22:43;47.78;;;10.40;;
20695;SDS011;10507;52.754;13.040;2022-09-09T02:25:13;17.83;;;8.40;;
20695;SDS011;10507;52.754;13.040;2022-09-09T02:27:45;21.15;;;8.63;;
20695;SDS011;10507;52.754;13.040;2022-09-09T02:30:16;14.40;;;8.25;;
20695;SDS011;10507;52.754;13.040;2022-09-09T02:32:44;19.92;;;8.75;;
20695;SDS011;10507;52.754;13.040;2022-09-09T02:35:14;71.32;;;11.50;;
20695;SDS011;10507;52.754;13.040;2022-09-09T02:37:44;13.52;;;8.02;;
20695;SDS011;10507;52.754;13.040;2022-09-09T02:40:14;12.60;;;7.07;;
20695;SDS011;10507;52.754;13.040;2022-09-09T02:42:43;22.88;;;7.70;;
20695;SDS011;10507;52.754;13.040;2022-09-09T02:45:15;50.60;;;8.13;;
20695;SDS011;10507;52.754;13.040;2022-09-09T02:47:47;17.15;;;7.63;;
20695;SDS011;10507;52.754;13.040;2022-09-09T02:50:19;17.02;;;7.28;;
20695;SDS011;10507;52.754;13.040;2022-09-09T02:52:55;18.33;;;8.95;;
20695;SDS011;10507;52.754;13.040;2022-09-09T02:55:37;14.15;;;8.43;;
20695;SDS011;10507;52.754;13.040;2022-09-09T02:58:10;14.38;;;8.00;;
20695;SDS011;10507;52.754;13.040;2022-09-09T03:00:43;9.57;;;7.32;;
20695;SDS011;10507;52.754;13.040;2022-09-09T03:03:13;10.18;;;7.50;;
20695;SDS011;10507;52.754;13.040;2022-09-09T03:05:43;16.42;;;8.57;;
20695;SDS011;10507;52.754;13.040;2022-09-09T03:08:12;34.70;;;9.90;;
20695;SDS011;10507;52.754;13.040;2022-09-09T03:10:40;23.80;;;8.80;;
20695;SDS011;10507;52.754;13.040;2022-09-09T03:13:07;12.25;;;7.80;;
20695;SDS011;10507;52.754;13.040;2022-09-09T03:15:39;17.83;;;8.80;;
20695;SDS011;10507;52.754;13.040;2022-09-09T03:18:06;13.10;;;7.30;;
20695;SDS011;10507;52.754;13.040;2022-09-09T03:20:34;17.90;;;7.15;;
20695;SDS011;10507;52.754;13.040;2022-09-09T03:23:02;15.55;;;7.25;;
20695;SDS011;10507;52.754;13.040;2022-09-09T03:25:30;13.00;;;6.60;;
20695;SDS011;10507;52.754;13.040;2022-09-09T03:27:58;12.02;;;7.93;;
20695;SDS011;10507;52.754;13.040;2022-09-09T03:30:27;14.63;;;9.20;;
20695;SDS011;10507;52.754;13.040;2022-09-09T03:32:55;13.38;;;7.90;;
20695;SDS011;10507;52.754;13.040;2022-09-09T03:35:23;10.65;;;8.05;;
20695;SDS011;10507;52.754;13.040;2022-09-09T03:37:51;13.98;;;8.43;;
20695;SDS011;10507;52.754;13.040;2022-09-09T03:40:21;12.10;;;9.00;;
20695;SDS011;10507;52.754;13.040;2022-09-09T03:42:49;11.60;;;7.25;;
20695;SDS011;10507;52.754;13.040;2022-09-09T03:45:17;10.98;;;8.00;;
20695;SDS011;10507;52.754;13.040;2022-09-09T03:47:46;11.45;;;8.18;;
20695;SDS011;10507;52.754;13.040;2022-09-09T03:50:13;15.88;;;8.02;;
20695;SDS011;10507;52.754;13.040;2022-09-09T03:52:41;11.18;;;8.48;;
20695;SDS011;10507;52.754;13.040;2022-09-09T03:55:10;11.65;;;8.55;;
20695;SDS011;10507;52.754;13.040;2022-09-09T03:57:40;13.43;;;8.80;;
20695;SDS011;10507;52.754;13.040;2022-09-09T04:00:08;12.85;;;8.70;;
20695;SDS011;10507;52.754;13.040;2022-09-09T04:02:36;14.43;;;8.70;;
20695;SDS011;10507;52.754;13.040;2022-09-09T04:05:07;10.80;;;7.82;;
20695;SDS011;10507;52.754;13.040;2022-09-09T04:07:35;13.63;;;8.43;;
20695;SDS011;10507;52.754;13.040;2022-09-09T04:10:03;11.02;;;8.13;;
20695;SDS011;10507;52.754;13.040;2022-09-09T04:12:31;11.02;;;8.30;;
20695;SDS011;10507;52.754;13.040;2022-09-09T04:15:00;10.75;;;8.15;;
20695;SDS011;10507;52.754;13.040;2022-09-09T04:17:29;9.48;;;7.13;;
20695;SDS011;10507;52.754;13.040;2022-09-09T04:19:56;10.00;;;7.63;;
20695;SDS011;10507;52.754;13.040;2022-09-09T04:22:25;10.48;;;7.60;;
20695;SDS011;10507;52.754;13.040;2022-09-09T04:24:53;12.65;;;8.48;;
20695;SDS011;10507;52.754;13.040;2022-09-09T04:27:21;9.40;;;7.50;;
20695;SDS011;10507;52.754;13.040;2022-09-09T04:29:48;10.45;;;7.30;;
20695;SDS011;10507;52.754;13.040;2022-09-09T04:32:16;10.98;;;7.30;;
20695;SDS011;10507;52.754;13.040;2022-09-09T04:34:44;10.50;;;7.35;;
20695;SDS011;10507;52.754;13.040;2022-09-09T04:37:13;10.80;;;6.70;;
20695;SDS011;10507;52.754;13.040;2022-09-09T04:39:42;9.20;;;6.80;;
20695;SDS011;10507;52.754;13.040;2022-09-09T04:42:11;11.23;;;7.47;;
20695;SDS011;10507;52.754;13.040;2022-09-09T04:44:39;12.90;;;9.48;;
20695;SDS011;10507;52.754;13.040;2022-09-09T04:47:06;12.93;;;10.10;;
20695;SDS011;10507;52.754;13.040;2022-09-09T04:49:34;12.90;;;9.95;;
20695;SDS011;10507;52.754;13.040;2022-09-09T04:52:02;14.52;;;10.73;;
20695;SDS011;10507;52.754;13.040;2022-09-09T04:54:30;14.60;;;10.23;;
20695;SDS011;10507;52.754;13.040;2022-09-09T04:56:59;16.35;;;11.05;;
20695;SDS011;10507;52.754;13.040;2022-09-09T04:59:27;14.60;;;10.25;;
20695;SDS011;10507;52.754;13.040;2022-09-09T05:01:55;16.65;;;9.95;;
20695;SDS011;10507;52.754;13.040;2022-09-09T05:04:22;14.45;;;10.32;;
20695;SDS011;10507;52.754;13.040;2022-09-09T05:06:50;12.77;;;10.25;;
20695;SDS011;10507;52.754;13.040;2022-09-09T05:09:18;14.20;;;10.82;;
20695;SDS011;10507;52.754;13.040;2022-09-09T05:11:46;16.48;;;10.35;;
20695;SDS011;10507;52.754;13.040;2022-09-09T05:14:16;16.63;;;10.23;;
20695;SDS011;10507;52.754;13.040;2022-09-09T05:16:44;14.38;;;9.75;;
20695;SDS011;10507;52.754;13.040;2022-09-09T05:19:13;16.23;;;9.85;;
20695;SDS011;10507;52.754;13.040;2022-09-09T05:21:40;12.63;;;8.85;;
20695;SDS011;10507;52.754;13.040;2022-09-09T05:24:08;14.52;;;9.90;;
20695;SDS011;10507;52.754;13.040;2022-09-09T05:26:36;13.80;;;8.13;;
20695;SDS011;10507;52.754;13.040;2022-09-09T05:29:03;11.35;;;8.40;;
20695;SDS011;10507;52.754;13.040;2022-09-09T05:31:33;12.63;;;9.18;;
20695;SDS011;10507;52.754;13.040;2022-09-09T05:34:01;10.63;;;8.77;;
20695;SDS011;10507;52.754;13.040;2022-09-09T05:36:28;11.38;;;8.50;;
20695;SDS011;10507;52.754;13.040;2022-09-09T05:38:56;11.95;;;8.85;;
20695;SDS011;10507;52.754;13.040;2022-09-09T05:41:24;11.50;;;8.85;;
20695;SDS011;10507;52.754;13.040;2022-09-09T05:43:51;10.10;;;8.48;;
20695;SDS011;10507;52.754;13.040;2022-09-09T05:46:19;11.23;;;8.40;;
20695;SDS011;10507;52.754;13.040;2022-09-09T05:48:50;11.05;;;7.53;;
20695;SDS011;10507;52.754;13.040;2022-09-09T05:51:20;11.40;;;7.05;;
20695;SDS011;10507;52.754;13.040;2022-09-09T05:53:49;8.98;;;6.50;;
20695;SDS011;10507;52.754;13.040;2022-09-09T05:56:18;8.15;;;6.70;;
20695;SDS011;10507;52.754;13.040;2022-09-09T05:58:48;8.65;;;5.68;;
20695;SDS011;10507;52.754;13.040;2022-09-09T06:01:17;7.60;;;4.75;;
20695;SDS011;10507;52.754;13.040;2022-09-09T06:03:47;7.18;;;5.00;;
20695;SDS011;10507;52.754;13.040;2022-09-09T06:06:18;6.90;;;4.53;;
20695;SDS011;10507;52.754;13.040;2022-09-09T06:08:48;5.53;;;3.90;;
20695;SDS011;10507;52.754;13.040;2022-09-09T06:11:18;4.40;;;3.42;;
20695;SDS011;10507;52.754;13.040;2022-09-09T06:13:47;5.40;;;2.97;;
20695;SDS011;10507;52.754;13.040;2022-09-09T06:16:20;6.32;;;3.30;;
20695;SDS011;10507;52.754;13.040;2022-09-09T06:18:51;5.72;;;3.30;;
20695;SDS011;10507;52.754;13.040;2022-09-09T06:21:20;5.30;;;3.33;;
20695;SDS011;10507;52.754;13.040;2022-09-09T06:23:49;6.65;;;2.67;;
20695;SDS011;10507;52.754;13.040;2022-09-09T06:26:26;5.75;;;2.97;;
20695;SDS011;10507;52.754;13.040;2022-09-09T06:28:56;6.70;;;3.38;;
20695;SDS011;10507;52.754;13.040;2022-09-09T06:31:25;5.32;;;2.85;;
20695;SDS011;10507;52.754;13.040;2022-09-09T06:33:58;4.63;;;2.75;;
20695;SDS011;10507;52.754;13.040;2022-09-09T06:36:27;4.38;;;2.80;;
20695;SDS011;10507;52.754;13.040;2022-09-09T06:38:55;3.83;;;2.63;;
20695;SDS011;10507;52.754;13.040;2022-09-09T06:41:24;4.88;;;2.65;;
20695;SDS011;10507;52.754;13.040;2022-09-09T06:43:53;5.75;;;2.83;;
20695;SDS011;10507;52.754;13.040;2022-09-09T06:46:22;6.15;;;2.38;;
20695;SDS011;10507;52.754;13.040;2022-09-09T06:48:53;4.10;;;2.63;;
20695;SDS011;10507;52.754;13.040;2022-09-09T06:51:25;3.20;;;1.92;;
20695;SDS011;10507;52.754;13.040;2022-09-09T06:53:54;4.15;;;2.33;;
20695;SDS011;10507;52.754;13.040;2022-09-09T06:56:25;4.30;;;2.25;;
20695;SDS011;10507;52.754;13.040;2022-09-09T06:58:54;3.92;;;2.15;;
20695;SDS011;10507;52.754;13.040;2022-09-09T07:01:24;4.60;;;2.30;;
20695;SDS011;10507;52.754;13.040;2022-09-09T07:03:53;5.20;;;1.85;;
20695;SDS011;10507;52.754;13.040;2022-09-09T07:06:26;4.18;;;1.92;;
20695;SDS011;10507;52.754;13.040;2022-09-09T07:08:56;4.82;;;1.85;;
20695;SDS011;10507;52.754;13.040;2022-09-09T07:11:25;4.65;;;2.20;;
20695;SDS011;10507;52.754;13.040;2022-09-09T07:13:55;3.67;;;1.98;;
20695;SDS011;10507;52.754;13.040;2022-09-09T07:16:25;3.85;;;1.73;;
20695;SDS011;10507;52.754;13.040;2022-09-09T07:18:53;6.03;;;1.83;;
20695;SDS011;10507;52.754;13.040;2022-09-09T07:21:25;3.65;;;1.73;;
20695;SDS011;10507;52.754;13.040;2022-09-09T07:23:55;3.53;;;2.15;;
20695;SDS011;10507;52.754;13.040;2022-09-09T07:26:23;5.75;;;1.90;;
20695;SDS011;10507;52.754;13.040;2022-09-09T07:28:52;3.17;;;1.33;;
20695;SDS011;10507;52.754;13.040;2022-09-09T07:31:22;4.25;;;1.60;;
20695;SDS011;10507;52.754;13.040;2022-09-09T07:33:52;4.20;;;1.38;;
20695;SDS011;10507;52.754;13.040;2022-09-09T07:36:21;2.40;;;1.38;;
20695;SDS011;10507;52.754;13.040;2022-09-09T07:38:56;3.05;;;1.40;;
20695;SDS011;10507;52.754;13.040;2022-09-09T07:41:26;5.32;;;1.35;;
20695;SDS011;10507;52.754;13.040;2022-09-09T07:43:54;3.40;;;1.20;;
20695;SDS011;10507;52.754;13.040;2022-09-09T07:46:22;4.75;;;1.45;;
20695;SDS011;10507;52.754;13.040;2022-09-09T07:48:52;3.03;;;1.30;;
20695;SDS011;10507;52.754;13.040;2022-09-09T07:51:22;2.38;;;1.48;;
20695;SDS011;10507;52.754;13.040;2022-09-09T07:53:52;5.03;;;1.77;;
20695;SDS011;10507;52.754;13.040;2022-09-09T07:56:22;4.25;;;1.65;;
20695;SDS011;10507;52.754;13.040;2022-09-09T07:58:51;4.93;;;1.50;;
20695;SDS011;10507;52.754;13.040;2022-09-09T08:01:22;6.15;;;1.27;;
20695;SDS011;10507;52.754;13.040;2022-09-09T08:03:53;2.88;;;1.60;;
20695;SDS011;10507;52.754;13.040;2022-09-09T08:06:25;7.60;;;1.58;;
20695;SDS011;10507;52.754;13.040;2022-09-09T08:08:53;3.67;;;1.30;;
20695;SDS011;10507;52.754;13.040;2022-09-09T08:11:24;2.70;;;1.35;;
20695;SDS011;10507;52.754;13.040;2022-09-09T08:13:53;3.33;;;1.70;;
20695;SDS011;10507;52.754;13.040;2022-09-09T08:16:28;3.78;;;1.60;;
20695;SDS011;10507;52.754;13.040;2022-09-09T08:18:57;5.32;;;1.38;;
20695;SDS011;10507;52.754;13.040;2022-09-09T08:21:26;5.50;;;2.20;;
20695;SDS011;10507;52.754;13.040;2022-09-09T08:23:56;5.75;;;1.80;;
20695;SDS011;10507;52.754;13.040;2022-09-09T08:26:28;4.20;;;1.80;;
20695;SDS011;10507;52.754;13.040;2022-09-09T08:28:57;4.15;;;1.55;;
20695;SDS011;10507;52.754;13.040;2022-09-09T08:31:27;4.80;;;1.70;;
20695;SDS011;10507;52.754;13.040;2022-09-09T08:33:56;3.35;;;1.98;;
20695;SDS011;10507;52.754;13.040;2022-09-09T08:36:27;3.47;;;1.48;;
20695;SDS011;10507;52.754;13.040;2022-09-09T08:38:56;3.80;;;1.75;;
20695;SDS011;10507;52.754;13.040;2022-09-09T08:47:54;4.15;;;1.70;;
20695;SDS011;10507;52.754;13.040;2022-09-09T08:50:33;3.05;;;1.60;;
20695;SDS011;10507;52.754;13.040;2022-09-09T08:53:05;4.10;;;1.60;;
20695;SDS011;10507;52.754;13.040;2022-09-09T08:55:41;4.47;;;1.98;;
20695;SDS011;10507;52.754;13.040;2022-09-09T08:58:13;3.53;;;1.90;;
20695;SDS011;10507;52.754;13.040;2022-09-09T09:00:57;4.25;;;2.00;;
20695;SDS011;10507;52.754;13.040;2022-09-09T09:03:46;4.63;;;1.83;;
20695;SDS011;10507;52.754;13.040;2022-09-09T09:06:23;5.38;;;1.70;;
20695;SDS011;10507;52.754;13.040;2022-09-09T09:09:04;3.25;;;2.13;;
20695;SDS011;10507;52.754;13.040;2022-09-09T09:11:40;3.35;;;1.80;;
20695;SDS011;10507;52.754;13.040;2022-09-09T09:14:15;3.92;;;1.70;;
20695;SDS011;10507;52.754;13.040;2022-09-09T09:16:50;8.63;;;2.13;;
20695;SDS011;10507;52.754;13.040;2022-09-09T09:19:20;8.77;;;1.70;;
20695;SDS011;10507;52.754;13.040;2022-09-09T09:21:53;3.95;;;1.63;;
20695;SDS011;10507;52.754;13.040;2022-09-09T09:24:27;4.47;;;1.55;;
20695;SDS011;10507;52.754;13.040;2022-09-09T09:27:04;3.80;;;1.67;;
20695;SDS011;10507;52.754;13.040;2022-09-09T09:29:39;5.53;;;1.55;;
20695;SDS011;10507;52.754;13.040;2022-09-09T09:32:32;2.97;;;1.67;;
20695;SDS011;10507;52.754;13.040;2022-09-09T09:35:02;4.80;;;1.70;;
20695;SDS011;10507;52.754;13.040;2022-09-09T09:37:39;3.88;;;1.70;;
20695;SDS011;10507;52.754;13.040;2022-09-09T09:40:29;3.50;;;1.52;;
20695;SDS011;10507;52.754;13.040;2022-09-09T09:42:57;5.57;;;2.00;;
20695;SDS011;10507;52.754;13.040;2022-09-09T09:45:28;3.45;;;1.50;;
20695;SDS011;10507;52.754;13.040;2022-09-09T09:48:02;3.03;;;1.40;;
20695;SDS011;10507;52.754;13.040;2022-09-09T09:50:33;5.68;;;1.85;;
20695;SDS011;10507;52.754;13.040;2022-09-09T09:53:02;2.50;;;1.40;;
20695;SDS011;10507;52.754;13.040;2022-09-09T09:55:31;4.40;;;1.33;;
20695;SDS011;10507;52.754;13.040;2022-09-09T09:58:03;5.63;;;1.65;;
20695;SDS011;10507;52.754;13.040;2022-09-09T10:00:32;3.05;;;1.38;;
20695;SDS011;10507;52.754;13.040;2022-09-09T10:03:12;3.80;;;1.58;;
20695;SDS011;10507;52.754;13.040;2022-09-09T10:05:47;6.85;;;1.42;;
20695;SDS011;10507;52.754;13.040;2022-09-09T10:08:16;2.05;;;1.20;;
20695;SDS011;10507;52.754;13.040;2022-09-09T10:10:54;3.35;;;1.48;;
20695;SDS011;10507;52.754;13.040;2022-09-09T10:13:30;3.33;;;1.35;;
20695;SDS011;10507;52.754;13.040;2022-09-09T10:16:09;2.65;;;1.42;;
20695;SDS011;10507;52.754;13.040;2022-09-09T10:18:51;5.18;;;1.80;;
20695;SDS011;10507;52.754;13.040;2022-09-09T10:27:18;4.97;;;1.55;;
20695;SDS011;10507;52.754;13.040;2022-09-09T10:29:58;5.38;;;1.73;;
20695;SDS011;10507;52.754;13.040;2022-09-09T10:32:41;4.45;;;1.38;;
20695;SDS011;10507;52.754;13.040;2022-09-09T10:35:29;3.70;;;1.85;;
20695;SDS011;10507;52.754;13.040;2022-09-09T10:40:50;4.15;;;1.30;;
20695;SDS011;10507;52.754;13.040;2022-09-09T10:46:36;11.88;;;1.80;;
20695;SDS011;10507;52.754;13.040;2022-09-09T10:49:20;5.20;;;1.55;;
20695;SDS011;10507;52.754;13.040;2022-09-09T10:52:01;2.45;;;1.15;;
20695;SDS011;10507;52.754;13.040;2022-09-09T10:54:40;4.15;;;1.40;;
20695;SDS011;10507;52.754;13.040;2022-09-09T10:57:17;4.47;;;1.20;;
20695;SDS011;10507;52.754;13.040;2022-09-09T10:59:55;4.28;;;1.55;;
20695;SDS011;10507;52.754;13.040;2022-09-09T11:02:26;5.38;;;1.75;;
20695;SDS011;10507;52.754;13.040;2022-09-09T11:04:56;6.78;;;1.95;;
20695;SDS011;10507;52.754;13.040;2022-09-09T11:07:33;4.55;;;1.23;;
20695;SDS011;10507;52.754;13.040;2022-09-09T11:10:07;4.32;;;1.17;;
20695;SDS011;10507;52.754;13.040;2022-09-09T11:12:45;5.13;;;1.40;;
20695;SDS011;10507;52.754;13.040;2022-09-09T11:15:19;2.20;;;1.00;;
20695;SDS011;10507;52.754;13.040;2022-09-09T11:17:52;4.15;;;1.33;;
20695;SDS011;10507;52.754;13.040;2022-09-09T11:20:22;2.95;;;1.02;;
20695;SDS011;10507;52.754;13.040;2022-09-09T11:22:53;3.58;;;1.13;;
20695;SDS011;10507;52.754;13.040;2022-09-09T11:25:27;2.65;;;1.17;;
20695;SDS011;10507;52.754;13.040;2022-09-09T11:28:05;4.57;;;1.17;;
20695;SDS011;10507;52.754;13.040;2022-09-09T11:30:52;5.97;;;1.50;;
20695;SDS011;10507;52.754;13.040;2022-09-09T11:33:47;3.47;;;1.00;;
20695;SDS011;10507;52.754;13.040;2022-09-09T11:36:27;3.70;;;1.27;;
20695;SDS011;10507;52.754;13.040;2022-09-09T11:39:12;5.05;;;1.10;;
20695;SDS011;10507;52.754;13.040;2022-09-09T11:42:04;3.35;;;0.90;;
20695;SDS011;10507;52.754;13.040;2022-09-09T11:44:33;4.90;;;1.63;;
20695;SDS011;10507;52.754;13.040;2022-09-09T11:47:01;3.92;;;1.10;;
20695;SDS011;10507;52.754;13.040;2022-09-09T11:49:28;4.60;;;1.63;;
20695;SDS011;10507;52.754;13.040;2022-09-09T11:52:10;4.43;;;1.10;;
20695;SDS011;10507;52.754;13.040;2022-09-09T11:54:46;2.92;;;0.93;;
20695;SDS011;10507;52.754;13.040;2022-09-09T11:59:52;2.22;;;1.02;;
20695;SDS011;10507;52.754;13.040;2022-09-09T12:02:22;4.95;;;1.00;;
20695;SDS011;10507;52.754;13.040;2022-09-09T12:04:55;6.10;;;1.48;;
20695;SDS011;10507;52.754;13.040;2022-09-09T12:07:31;4.00;;;1.27;;
20695;SDS011;10507;52.754;13.040;2022-09-09T12:10:05;4.32;;;1.30;;
20695;SDS011;10507;52.754;13.040;2022-09-09T12:12:47;5.88;;;1.52;;
20695;SDS011;10507;52.754;13.040;2022-09-09T12:15:22;6.45;;;1.48;;
20695;SDS011;10507;52.754;13.040;2022-09-09T12:17:55;4.07;;;1.20;;
20695;SDS011;10507;52.754;13.040;2022-09-09T12:20:31;5.10;;;1.13;;
20695;SDS011;10507;52.754;13.040;2022-09-09T12:23:05;2.75;;;1.20;;
20695;SDS011;10507;52.754;13.040;2022-09-09T12:25:53;3.42;;;1.10;;
20695;SDS011;10507;52.754;13.040;2022-09-09T12:28:32;4.93;;;1.48;;
20695;SDS011;10507;52.754;13.040;2022-09-09T12:31:11;2.35;;;1.10;;
20695;SDS011;10507;52.754;13.040;2022-09-09T12:33:45;3.03;;;1.20;;
20695;SDS011;10507;52.754;13.040;2022-09-09T12:36:14;3.25;;;1.20;;
20695;SDS011;10507;52.754;13.040;2022-09-09T12:38:46;3.22;;;1.15;;
20695;SDS011;10507;52.754;13.040;2022-09-09T12:41:21;3.90;;;1.23;;
20695;SDS011;10507;52.754;13.040;2022-09-09T12:43:50;3.20;;;1.02;;
20695;SDS011;10507;52.754;13.040;2022-09-09T12:46:21;2.22;;;0.98;;
20695;SDS011;10507;52.754;13.040;2022-09-09T12:48:55;3.67;;;0.93;;
20695;SDS011;10507;52.754;13.040;2022-09-09T12:51:24;4.20;;;1.40;;
20695;SDS011;10507;52.754;13.040;2022-09-09T12:53:54;4.18;;;1.10;;
20695;SDS011;10507;52.754;13.040;2022-09-09T12:56:25;4.47;;;1.33;;
20695;SDS011;10507;52.754;13.040;2022-09-09T12:58:56;5.03;;;1.30;;
20695;SDS011;10507;52.754;13.040;2022-09-09T13:01:26;3.90;;;1.08;;
20695;SDS011;10507;52.754;13.040;2022-09-09T13:03:55;3.72;;;1.10;;
20695;SDS011;10507;52.754;13.040;2022-09-09T13:06:24;2.15;;;1.20;;
20695;SDS011;10507;52.754;13.040;2022-09-09T13:08:55;3.17;;;0.93;;
20695;SDS011;10507;52.754;13.040;2022-09-09T13:11:26;3.28;;;1.10;;
20695;SDS011;10507;52.754;13.040;2022-09-09T13:13:58;2.17;;;1.00;;
20695;SDS011;10507;52.754;13.040;2022-09-09T13:16:27;3.85;;;1.10;;
20695;SDS011;10507;52.754;13.040;2022-09-09T13:18:58;7.40;;;1.25;;
20695;SDS011;10507;52.754;13.040;2022-09-09T13:21:31;2.72;;;0.73;;
20695;SDS011;10507;52.754;13.040;2022-09-09T13:24:01;3.25;;;1.00;;
20695;SDS011;10507;52.754;13.040;2022-09-09T13:26:32;3.08;;;1.10;;
20695;SDS011;10507;52.754;13.040;2022-09-09T13:29:14;1.98;;;0.80;;
20695;SDS011;10507;52.754;13.040;2022-09-09T13:31:45;3.47;;;1.08;;
20695;SDS011;10507;52.754;13.040;2022-09-09T13:34:13;1.40;;;0.70;;
20695;SDS011;10507;52.754;13.040;2022-09-09T13:36:41;9.20;;;1.50;;
20695;SDS011;10507;52.754;13.040;2022-09-09T13:39:15;2.30;;;0.90;;
20695;SDS011;10507;52.754;13.040;2022-09-09T13:41:46;2.90;;;0.75;;
20695;SDS011;10507;52.754;13.040;2022-09-09T13:44:17;3.95;;;1.13;;
20695;SDS011;10507;52.754;13.040;2022-09-09T13:46:59;2.92;;;1.08;;
20695;SDS011;10507;52.754;13.040;2022-09-09T13:49:34;4.30;;;0.90;;
20695;SDS011;10507;52.754;13.040;2022-09-09T13:52:03;3.50;;;0.90;;
20695;SDS011;10507;52.754;13.040;2022-09-09T13:54:33;3.20;;;1.05;;
20695;SDS011;10507;52.754;13.040;2022-09-09T13:57:02;3.05;;;0.98;;
20695;SDS011;10507;52.754;13.040;2022-09-09T13:59:31;5.63;;;0.90;;
20695;SDS011;10507;52.754;13.040;2022-09-09T14:02:18;3.83;;;0.95;;
20695;SDS011;10507;52.754;13.040;2022-09-09T14:04:47;3.63;;;0.80;;
20695;SDS011;10507;52.754;13.040;2022-09-09T14:07:17;3.83;;;0.95;;
20695;SDS011;10507;52.754;13.040;2022-09-09T14:09:45;4.38;;;1.05;;
20695;SDS011;10507;52.754;13.040;2022-09-09T14:12:17;3.15;;;0.88;;
20695;SDS011;10507;52.754;13.040;2022-09-09T14:14:45;2.60;;;1.00;;
20695;SDS011;10507;52.754;13.040;2022-09-09T14:17:12;5.38;;;1.48;;
20695;SDS011;10507;52.754;13.040;2022-09-09T14:19:40;4.15;;;1.02;;
20695;SDS011;10507;52.754;13.040;2022-09-09T14:22:08;4.07;;;1.08;;
20695;SDS011;10507;52.754;13.040;2022-09-09T14:24:37;4.57;;;1.35;;
20695;SDS011;10507;52.754;13.040;2022-09-09T14:27:04;7.43;;;0.93;;
20695;SDS011;10507;52.754;13.040;2022-09-09T14:29:33;6.03;;;1.00;;
20695;SDS011;10507;52.754;13.040;2022-09-09T14:32:01;4.25;;;1.83;;
20695;SDS011;10507;52.754;13.040;2022-09-09T14:34:29;7.28;;;1.45;;
20695;SDS011;10507;52.754;13.040;2022-09-09T14:36:58;5.63;;;1.27;;
20695;SDS011;10507;52.754;13.040;2022-09-09T14:39:26;2.33;;;1.08;;
20695;SDS011;10507;52.754;13.040;2022-09-09T14:41:53;2.95;;;1.25;;
20695;SDS011;10507;52.754;13.040;2022-09-09T14:44:22;5.13;;;1.02;;
20695;SDS011;10507;52.754;13.040;2022-09-09T14:46:51;4.32;;;1.13;;
20695;SDS011;10507;52.754;13.040;2022-09-09T14:49:19;3.90;;;1.40;;
20695;SDS011;10507;52.754;13.040;2022-09-09T14:51:47;5.07;;;1.75;;
20695;SDS011;10507;52.754;13.040;2022-09-09T14:54:14;4.38;;;1.10;;
20695;SDS011;10507;52.754;13.040;2022-09-09T14:56:42;6.40;;;1.33;;
20695;SDS011;10507;52.754;13.040;2022-09-09T14:59:09;7.10;;;1.63;;
20695;SDS011;10507;52.754;13.040;2022-09-09T15:01:38;2.25;;;1.10;;
20695;SDS011;10507;52.754;13.040;2022-09-09T15:04:10;5.38;;;1.48;;
20695;SDS011;10507;52.754;13.040;2022-09-09T15:06:40;6.15;;;1.67;;
20695;SDS011;10507;52.754;13.040;2022-09-09T15:09:10;8.27;;;1.70;;
20695;SDS011;10507;52.754;13.040;2022-09-09T15:11:38;3.95;;;1.38;;
20695;SDS011;10507;52.754;13.040;2022-09-09T15:14:06;7.63;;;1.67;;
20695;SDS011;10507;52.754;13.040;2022-09-09T15:16:35;6.97;;;1.30;;